createdAt,value
2022-08-10T00:01:52.677Z,6.77
2022-08-10T00:04:24.121Z,6.77
2022-08-10T00:06:55.030Z,7.23
2022-08-10T00:09:22.769Z,7.70
2022-08-10T00:11:49.378Z,7.10
2022-08-10T00:14:16.068Z,8.07
2022-08-10T00:16:42.654Z,7.00
2022-08-10T00:19:09.848Z,7.37
2022-08-10T00:21:36.817Z,6.50
2022-08-10T00:24:03.693Z,7.73
2022-08-10T00:27:52.633Z,7.80
2022-08-10T00:29:16.905Z,9.70
2022-08-10T00:31:57.925Z,9.27
2022-08-10T00:34:29.380Z,8.93
2022-08-10T00:36:56.516Z,8.23
2022-08-10T00:39:23.029Z,8.97
2022-08-10T00:42:06.962Z,8.60
2022-08-10T00:44:39.233Z,8.57
2022-08-10T00:47:06.581Z,7.60
2022-08-10T00:49:33.320Z,8.63
2022-08-10T00:52:00.487Z,10.67
2022-08-10T00:54:27.415Z,9.30
2022-08-10T00:57:16.363Z,9.03
2022-08-10T00:59:57.813Z,9.00
2022-08-10T01:02:27.117Z,9.27
2022-08-10T01:04:59.307Z,10.13
2022-08-10T01:07:33.261Z,10.57
2022-08-10T01:10:37.708Z,10.50
2022-08-10T01:13:13.384Z,9.10
2022-08-10T01:15:57.009Z,9.10
2022-08-10T01:19:01.136Z,9.50
2022-08-10T01:22:01.549Z,10.80
2022-08-10T01:24:45.951Z,11.10
2022-08-10T01:27:23.078Z,10.20
2022-08-10T01:30:10.779Z,10.43
2022-08-10T01:33:31.927Z,10.30
2022-08-10T01:36:14.693Z,9.90
2022-08-10T01:38:45.820Z,9.70
2022-08-10T01:41:12.304Z,9.67
2022-08-10T01:43:44.028Z,9.57
2022-08-10T01:46:12.647Z,9.97
2022-08-10T01:48:42.620Z,9.80
2022-08-10T01:51:19.238Z,9.50
2022-08-10T01:53:52.254Z,9.63
2022-08-10T01:56:21.287Z,10.40
2022-08-10T01:58:57.638Z,9.50
2022-08-10T02:01:26.897Z,9.97
2022-08-10T02:04:03.494Z,10.80
2022-08-10T02:06:34.444Z,9.23
2022-08-10T02:09:06.016Z,9.37
2022-08-10T02:12:05.222Z,8.63
2022-08-10T02:14:20.568Z,9.93
2022-08-10T02:16:50.094Z,10.30
2022-08-10T02:19:18.992Z,9.20
2022-08-10T02:22:36.307Z,8.83
2022-08-10T02:24:34.316Z,9.17
2022-08-10T02:27:01.976Z,11.30
2022-08-10T02:29:30.343Z,9.53
2022-08-10T02:31:56.961Z,10.57
2022-08-10T02:34:25.393Z,9.47
2022-08-10T02:36:54.230Z,8.47
2022-08-10T02:39:21.891Z,8.77
2022-08-10T02:45:08.182Z,8.17
2022-08-10T02:45:20.485Z,7.87
2022-08-10T02:47:51.259Z,9.70
2022-08-10T02:50:35.400Z,8.80
2022-08-10T02:53:06.466Z,8.50
2022-08-10T02:56:06.989Z,8.50
2022-08-10T02:58:59.510Z,8.33
2022-08-10T03:01:31.900Z,7.97
2022-08-10T03:04:01.760Z,7.83
2022-08-10T03:06:34.847Z,7.77
2022-08-10T03:09:02.928Z,9.80
2022-08-10T03:12:35.083Z,8.37
2022-08-10T03:14:18.860Z,8.00
2022-08-10T03:16:46.588Z,8.57
2022-08-10T03:20:34.223Z,7.83
2022-08-10T03:22:03.037Z,7.97
2022-08-10T03:24:32.973Z,7.83
2022-08-10T03:27:00.583Z,9.20
2022-08-10T03:29:27.785Z,7.57
2022-08-10T03:31:55.210Z,7.70
2022-08-10T03:34:32.953Z,9.50
2022-08-10T03:37:00.676Z,8.80
2022-08-10T03:39:27.504Z,8.63
2022-08-10T03:41:56.019Z,10.07
2022-08-10T03:44:25.979Z,9.30
2022-08-10T03:46:53.202Z,7.80
2022-08-10T03:49:20.598Z,8.13
2022-08-10T03:51:49.274Z,9.30
2022-08-10T03:54:16.917Z,8.00
2022-08-10T03:56:43.496Z,7.27
2022-08-10T03:59:11.902Z,8.90
2022-08-10T04:02:44.494Z,8.20
2022-08-10T04:04:26.079Z,7.83
2022-08-10T04:06:55.736Z,7.60
2022-08-10T04:09:54.015Z,7.93
2022-08-10T04:12:20.289Z,9.53
2022-08-10T04:14:51.431Z,8.00
2022-08-10T04:17:56.991Z,8.67
2022-08-10T04:20:20.961Z,9.27
2022-08-10T04:22:50.980Z,8.67
2022-08-10T04:25:18.101Z,8.47
2022-08-10T04:27:45.590Z,8.40
2022-08-10T04:30:12.265Z,8.10
2022-08-10T04:32:40.010Z,8.90
2022-08-10T04:35:10.776Z,8.70
2022-08-10T04:37:43.285Z,8.70
2022-08-10T04:40:29.270Z,9.60
2022-08-10T04:43:07.379Z,7.33
2022-08-10T04:45:47.605Z,9.20
2022-08-10T04:48:41.351Z,8.40
2022-08-10T04:51:06.277Z,9.27
2022-08-10T04:53:34.072Z,9.10
2022-08-10T04:56:20.587Z,9.73
2022-08-10T04:58:57.816Z,11.30
2022-08-10T05:01:25.004Z,9.53
2022-08-10T05:04:34.934Z,8.27
2022-08-10T05:06:38.175Z,7.40
2022-08-10T05:09:04.671Z,8.03
2022-08-10T05:11:31.138Z,7.20
2022-08-10T05:13:57.866Z,6.87
2022-08-10T05:16:31.685Z,6.73
2022-08-10T05:18:58.731Z,7.33
2022-08-10T05:22:03.622Z,6.70
2022-08-10T05:24:11.902Z,8.83
2022-08-10T05:26:42.475Z,6.73
2022-08-10T05:29:24.891Z,6.97
2022-08-10T05:31:51.433Z,6.87
2022-08-10T05:34:20.507Z,7.70
2022-08-10T05:36:48.017Z,7.53
2022-08-10T05:39:15.318Z,7.50
2022-08-10T05:41:46.107Z,8.67
2022-08-10T05:44:14.434Z,6.80
2022-08-10T05:46:41.270Z,7.20
2022-08-10T05:49:07.790Z,6.50
2022-08-10T05:51:34.672Z,6.43
2022-08-10T05:54:06.262Z,6.97
2022-08-10T05:56:53.683Z,8.40
2022-08-10T06:00:33.148Z,7.20
2022-08-10T06:02:34.164Z,7.87
2022-08-10T06:05:10.314Z,8.33
2022-08-10T06:07:43.096Z,7.50
2022-08-10T06:10:13.223Z,7.13
2022-08-10T06:12:55.149Z,6.70
2022-08-10T06:15:51.440Z,6.47
2022-08-10T06:18:12.499Z,6.77
2022-08-10T06:20:39.078Z,6.60
2022-08-10T06:23:06.667Z,7.00
2022-08-10T06:26:11.793Z,6.70
2022-08-10T06:28:21.066Z,6.50
2022-08-10T06:30:47.958Z,6.30
2022-08-10T06:33:14.864Z,6.53
2022-08-10T06:35:41.412Z,6.80
2022-08-10T06:38:08.513Z,6.40
2022-08-10T06:40:44.249Z,7.60
2022-08-10T06:43:13.715Z,6.40
2022-08-10T06:46:06.787Z,6.37
2022-08-10T06:49:05.003Z,7.13
2022-08-10T06:51:34.946Z,6.60
2022-08-10T06:54:03.717Z,6.27
2022-08-10T06:56:36.519Z,6.10
2022-08-10T06:59:24.194Z,6.80
2022-08-10T07:01:54.515Z,6.20
2022-08-10T07:04:32.955Z,6.30
2022-08-10T07:07:03.357Z,6.83
2022-08-10T07:09:30.813Z,5.87
2022-08-10T07:11:58.504Z,6.60
2022-08-10T07:14:41.530Z,5.80
2022-08-10T07:17:15.940Z,6.50
2022-08-10T07:19:49.880Z,6.70
2022-08-10T07:23:56.233Z,5.87
2022-08-10T07:25:12.618Z,6.00
2022-08-10T07:28:00.587Z,6.13
2022-08-10T07:30:32.424Z,7.30
2022-08-10T07:33:00.634Z,5.23
2022-08-10T07:35:31.942Z,5.90
2022-08-10T07:38:05.061Z,6.20
2022-08-10T07:40:31.885Z,5.37
2022-08-10T07:43:00.010Z,5.73
2022-08-10T07:45:29.175Z,5.70
2022-08-10T07:48:07.706Z,6.70
2022-08-10T07:50:36.956Z,5.77
2022-08-10T07:53:04.401Z,5.60
2022-08-10T07:56:05.945Z,6.00
2022-08-10T07:58:20.304Z,6.47
2022-08-10T08:00:48.311Z,5.17
2022-08-10T08:03:16.992Z,6.30
2022-08-10T08:05:58.663Z,6.53
2022-08-10T08:08:30.989Z,5.53
2022-08-10T08:10:58.566Z,6.27
2022-08-10T08:13:25.463Z,5.47
2022-08-10T08:16:19.154Z,5.43
2022-08-10T08:18:41.988Z,6.73
2022-08-10T08:24:06.694Z,5.27
2022-08-10T08:24:32.963Z,5.97
2022-08-10T08:27:04.827Z,5.97
2022-08-10T08:29:36.600Z,5.20
2022-08-10T08:32:04.469Z,5.87
2022-08-10T08:34:37.350Z,4.97
2022-08-10T08:37:05.363Z,6.20
2022-08-10T08:39:33.579Z,6.00
2022-08-10T08:42:24.428Z,5.30
2022-08-10T08:44:51.179Z,5.70
2022-08-10T08:48:06.466Z,5.07
2022-08-10T08:51:08.714Z,4.27
2022-08-10T08:54:02.747Z,4.90
2022-08-10T08:57:01.748Z,4.70
2022-08-10T08:59:50.397Z,4.63
2022-08-10T09:02:29.111Z,5.10
2022-08-10T09:05:14.409Z,4.23
2022-08-10T09:08:00.394Z,5.53
2022-08-10T09:10:41.193Z,5.57
2022-08-10T09:13:13.705Z,5.60
2022-08-10T09:16:00.011Z,5.03
2022-08-10T09:18:30.125Z,5.87
2022-08-10T09:21:18.664Z,5.37
2022-08-10T09:24:01.511Z,5.90
2022-08-10T09:26:42.946Z,5.30
2022-08-10T09:29:15.923Z,5.17
2022-08-10T09:32:54.327Z,4.10
2022-08-10T09:36:19.533Z,4.77
2022-08-10T09:38:10.613Z,5.17
2022-08-10T09:41:06.338Z,4.87
2022-08-10T09:43:38.552Z,4.87
2022-08-10T09:46:23.156Z,5.20
2022-08-10T09:48:50.307Z,4.90
2022-08-10T09:52:00.941Z,4.40
2022-08-10T09:54:43.510Z,4.53
2022-08-10T09:57:44.048Z,4.60
2022-08-10T10:00:23.872Z,3.70
2022-08-10T10:02:53.518Z,4.70
2022-08-10T10:05:52.044Z,3.90
2022-08-10T10:08:22.074Z,4.40
2022-08-10T10:10:56.640Z,4.20
2022-08-10T10:13:52.769Z,4.20
2022-08-10T10:16:54.768Z,4.40
2022-08-10T10:19:40.972Z,4.07
2022-08-10T10:22:30.267Z,4.20
2022-08-10T10:25:18.225Z,4.00
2022-08-10T10:27:53.647Z,4.47
2022-08-10T10:30:20.566Z,3.60
2022-08-10T10:33:05.777Z,4.63
2022-08-10T10:35:43.722Z,3.93
2022-08-10T10:38:12.115Z,4.20
2022-08-10T10:41:03.684Z,4.50
2022-08-10T10:43:51.527Z,4.20
2022-08-10T10:46:49.407Z,4.23
2022-08-10T10:49:29.590Z,4.20
2022-08-10T10:52:17.881Z,3.70
2022-08-10T10:56:13.294Z,4.40
2022-08-10T10:58:36.502Z,4.10
2022-08-10T11:01:28.605Z,4.03
2022-08-10T11:04:18.655Z,4.17
2022-08-10T11:07:03.963Z,4.40
2022-08-10T11:10:06.014Z,4.33
2022-08-10T11:12:47.762Z,4.40
2022-08-10T11:15:20.530Z,4.33
2022-08-10T11:17:56.565Z,4.23
2022-08-10T11:20:33.272Z,4.00
2022-08-10T11:23:09.014Z,4.10
2022-08-10T11:25:45.526Z,4.07
2022-08-10T11:28:19.216Z,4.03
2022-08-10T11:30:54.723Z,5.23
2022-08-10T11:34:48.647Z,4.20
2022-08-10T11:37:27.288Z,4.70
2022-08-10T11:40:07.008Z,3.50
2022-08-10T11:42:39.599Z,4.53
2022-08-10T11:45:12.480Z,4.40
2022-08-10T11:47:48.091Z,3.47
2022-08-10T11:50:37.535Z,4.17
2022-08-10T11:53:17.923Z,4.20
2022-08-10T11:55:45.481Z,4.00
2022-08-10T11:58:31.558Z,5.00
2022-08-10T12:01:02.248Z,3.53
2022-08-10T12:03:34.791Z,3.80
2022-08-10T12:06:02.320Z,3.93
2022-08-10T12:10:05.757Z,3.70
2022-08-10T12:11:24.579Z,4.10
2022-08-10T12:14:21.914Z,4.60
2022-08-10T12:16:59.800Z,4.30
2022-08-10T12:19:31.244Z,4.10
2022-08-10T12:22:21.880Z,3.93
2022-08-10T12:25:56.797Z,3.57
2022-08-10T12:28:16.396Z,4.07
2022-08-10T12:30:52.505Z,4.30
2022-08-10T12:33:27.080Z,4.90
2022-08-10T12:36:17.359Z,3.93
2022-08-10T12:39:07.873Z,4.10
2022-08-10T12:41:44.654Z,3.57
2022-08-10T12:44:20.433Z,4.50
2022-08-10T12:46:57.593Z,3.83
2022-08-10T12:50:31.388Z,4.07
2022-08-10T12:52:44.652Z,5.20
2022-08-10T12:55:11.963Z,4.30
2022-08-10T12:57:38.979Z,3.93
2022-08-10T13:00:07.309Z,3.97
2022-08-10T13:02:48.570Z,4.50
2022-08-10T13:05:16.062Z,4.17
2022-08-10T13:08:24.432Z,4.57
2022-08-10T13:10:33.354Z,3.83
2022-08-10T13:13:00.347Z,4.50
2022-08-10T13:15:49.151Z,3.83
2022-08-10T13:18:19.806Z,3.83
2022-08-10T13:20:51.426Z,4.13
2022-08-10T13:23:22.622Z,4.20
2022-08-10T13:25:50.545Z,4.43
2022-08-10T13:28:37.065Z,4.63
2022-08-10T13:31:11.629Z,4.30
2022-08-10T13:34:41.784Z,4.57
2022-08-10T13:36:38.553Z,4.70
2022-08-10T13:39:06.515Z,4.20
2022-08-10T13:41:40.008Z,4.10
2022-08-10T13:44:08.926Z,4.33
2022-08-10T13:46:40.287Z,5.40
2022-08-10T13:49:08.499Z,4.80
2022-08-10T13:51:57.154Z,4.30
2022-08-10T13:54:27.099Z,4.20
2022-08-10T13:56:54.647Z,4.13
2022-08-10T13:59:25.859Z,4.30
2022-08-10T14:02:17.631Z,4.87
2022-08-10T14:04:46.000Z,6.10
2022-08-10T14:07:13.399Z,3.90
2022-08-10T14:09:40.379Z,5.23
2022-08-10T14:12:08.636Z,3.77
2022-08-10T14:14:35.984Z,3.90
2022-08-10T14:17:03.255Z,4.47
2022-08-10T14:19:31.954Z,4.60
2022-08-10T14:21:59.607Z,3.63
2022-08-10T14:24:28.023Z,4.57
2022-08-10T14:27:11.902Z,5.40
2022-08-10T14:29:47.869Z,4.07
2022-08-10T14:32:16.874Z,4.13
2022-08-10T14:36:16.786Z,4.50
2022-08-10T14:37:38.062Z,5.00
2022-08-10T14:40:08.439Z,3.80
2022-08-10T14:42:53.144Z,4.50
2022-08-10T14:45:31.601Z,5.37
2022-08-10T14:48:01.635Z,3.63
2022-08-10T14:50:31.483Z,4.63
2022-08-10T14:53:00.923Z,4.57
2022-08-10T14:55:27.663Z,4.00
2022-08-10T14:58:20.220Z,3.87
2022-08-10T15:00:43.671Z,3.73
2022-08-10T15:04:02.395Z,3.80
2022-08-10T15:06:02.444Z,4.27
2022-08-10T15:08:37.104Z,4.20
2022-08-10T15:11:04.580Z,4.33
2022-08-10T15:13:33.920Z,3.53
2022-08-10T15:16:13.354Z,4.27
2022-08-10T15:18:58.026Z,3.93
2022-08-10T15:21:35.276Z,4.23
2022-08-10T15:24:14.430Z,4.90
2022-08-10T15:26:57.669Z,4.17
2022-08-10T15:29:25.501Z,3.87
2022-08-10T15:32:11.142Z,3.50
2022-08-10T15:34:56.672Z,3.40
2022-08-10T15:37:48.583Z,4.33
2022-08-10T15:40:25.914Z,3.90
2022-08-10T15:43:20.219Z,4.30
2022-08-10T15:45:57.798Z,4.67
2022-08-10T15:48:29.766Z,4.33
2022-08-10T15:51:05.861Z,4.07
2022-08-10T15:53:49.293Z,3.50
2022-08-10T15:56:30.737Z,4.70
2022-08-10T15:59:08.402Z,4.80
2022-08-10T16:02:15.118Z,4.13
2022-08-10T16:04:43.328Z,4.30
2022-08-10T16:07:17.241Z,3.27
2022-08-10T16:10:24.092Z,3.50
2022-08-10T16:12:59.622Z,4.97
2022-08-10T16:15:28.366Z,4.03
2022-08-10T16:17:57.477Z,3.73
2022-08-10T16:20:53.407Z,3.57
2022-08-10T16:23:40.542Z,3.40
2022-08-10T16:26:15.528Z,3.50
2022-08-10T16:28:50.352Z,3.77
2022-08-10T16:31:20.662Z,3.97
2022-08-10T16:33:54.244Z,3.10
2022-08-10T16:36:22.936Z,3.47
2022-08-10T16:38:50.722Z,4.10
2022-08-10T16:41:20.902Z,3.63
2022-08-10T16:44:07.015Z,4.77
2022-08-10T16:46:34.191Z,3.50
2022-08-10T16:49:01.651Z,4.40
2022-08-10T16:51:28.357Z,4.93
2022-08-10T16:53:55.760Z,4.40
2022-08-10T16:56:30.892Z,4.30
2022-08-10T16:58:58.521Z,4.60
2022-08-10T17:01:27.605Z,4.70
2022-08-10T17:04:05.463Z,5.97
2022-08-10T17:06:44.348Z,4.17
2022-08-10T17:09:17.709Z,4.37
2022-08-10T17:11:47.265Z,4.20
2022-08-10T17:14:13.960Z,4.73
2022-08-10T17:16:42.835Z,4.40
2022-08-10T17:19:14.271Z,4.00
2022-08-10T17:21:51.391Z,4.10
2022-08-10T17:24:21.604Z,6.20
2022-08-10T17:26:48.711Z,4.60
2022-08-10T17:29:53.586Z,4.87
2022-08-10T17:32:13.040Z,4.07
2022-08-10T17:34:45.954Z,4.90
2022-08-10T17:37:20.749Z,3.83
2022-08-10T17:39:55.050Z,4.27
2022-08-10T17:42:23.588Z,5.00
2022-08-10T17:44:53.156Z,5.40
2022-08-10T17:47:21.172Z,4.93
2022-08-10T17:49:48.175Z,4.73
2022-08-10T17:52:20.473Z,4.23
2022-08-10T17:54:54.241Z,5.03
2022-08-10T17:57:21.947Z,4.27
2022-08-10T17:59:50.170Z,4.17
2022-08-10T18:02:21.868Z,4.80
2022-08-10T18:04:57.177Z,4.20
2022-08-10T18:07:31.394Z,4.00
2022-08-10T18:09:58.842Z,4.63
2022-08-10T18:12:36.040Z,4.40
2022-08-10T18:15:13.413Z,4.37
2022-08-10T18:17:43.652Z,4.00
2022-08-10T18:20:11.536Z,3.97
2022-08-10T18:22:43.871Z,4.43
2022-08-10T18:25:25.127Z,4.50
2022-08-10T18:28:04.233Z,4.00
2022-08-10T18:30:35.946Z,5.10
2022-08-10T18:33:04.717Z,4.50
2022-08-10T18:35:34.556Z,4.30
2022-08-10T18:38:02.131Z,4.37
2022-08-10T18:40:35.470Z,4.77
2022-08-10T18:44:07.046Z,4.97
2022-08-10T18:45:57.079Z,4.90
2022-08-10T18:48:28.009Z,4.43
2022-08-10T18:50:57.415Z,4.37
2022-08-10T18:53:33.591Z,4.70
2022-08-10T18:56:14.759Z,4.23
2022-08-10T18:58:41.168Z,4.90
2022-08-10T19:01:35.064Z,4.97
2022-08-10T19:04:13.661Z,4.17
2022-08-10T19:07:00.555Z,4.37
2022-08-10T19:09:48.344Z,5.07
2022-08-10T19:12:29.904Z,4.57
2022-08-10T19:15:08.120Z,4.63
2022-08-10T19:18:02.906Z,5.93
2022-08-10T19:20:35.466Z,5.83
2022-08-10T19:23:27.625Z,6.40
2022-08-10T19:26:37.925Z,5.83
2022-08-10T19:28:57.467Z,4.47
2022-08-10T19:31:23.873Z,6.00
2022-08-10T19:34:34.548Z,5.83
2022-08-10T19:37:32.357Z,6.00
2022-08-10T19:40:44.472Z,5.60
2022-08-10T19:44:01.300Z,6.20
2022-08-10T19:46:39.917Z,7.00
2022-08-10T19:49:21.621Z,8.73
2022-08-10T19:51:57.135Z,10.43
2022-08-10T19:54:45.300Z,7.67
2022-08-10T19:57:31.877Z,7.90
2022-08-10T20:00:22.970Z,6.47
2022-08-10T20:03:14.276Z,8.20
2022-08-10T20:06:17.962Z,6.23
2022-08-10T20:08:59.232Z,6.47
2022-08-10T20:11:47.113Z,7.70
2022-08-10T20:14:31.644Z,8.97
2022-08-10T20:17:04.670Z,7.20
2022-08-10T20:19:56.254Z,7.80
2022-08-10T20:22:29.697Z,5.57
2022-08-10T20:25:13.994Z,7.27
2022-08-10T20:28:08.427Z,6.20
2022-08-10T20:30:37.764Z,7.77
2022-08-10T20:33:27.431Z,6.70
2022-08-10T20:36:07.905Z,7.20
2022-08-10T20:38:50.765Z,5.50
2022-08-10T20:41:58.926Z,6.13
2022-08-10T20:44:43.922Z,6.80
2022-08-10T20:47:15.045Z,6.97
2022-08-10T20:49:48.947Z,9.90
2022-08-10T20:52:15.661Z,10.20
2022-08-10T20:55:07.417Z,8.50
2022-08-10T20:57:57.633Z,7.80
2022-08-10T21:00:32.747Z,8.37
2022-08-10T21:03:32.925Z,8.03
2022-08-10T21:06:42.682Z,9.03
2022-08-10T21:09:24.289Z,9.60
2022-08-10T21:12:19.916Z,8.60
2022-08-10T21:15:07.742Z,8.37
2022-08-10T21:17:52.107Z,9.30
2022-08-10T21:20:47.334Z,8.50
2022-08-10T21:23:14.988Z,7.60
2022-08-10T21:25:46.154Z,8.33
2022-08-10T21:28:34.001Z,7.70
2022-08-10T21:31:36.736Z,7.87
2022-08-10T21:34:31.769Z,7.53
2022-08-10T21:37:01.810Z,7.00
2022-08-10T21:40:35.152Z,7.20
2022-08-10T21:43:58.881Z,7.00
2022-08-10T21:46:55.114Z,8.17
2022-08-10T21:50:04.398Z,7.80
2022-08-10T21:53:04.196Z,8.00
2022-08-10T21:55:59.606Z,8.63
2022-08-10T21:58:52.668Z,6.97
2022-08-10T22:01:44.196Z,7.80
2022-08-10T22:04:29.535Z,7.37
2022-08-10T22:07:16.715Z,7.67
2022-08-10T22:10:03.992Z,7.30
2022-08-10T22:12:56.925Z,8.70
2022-08-10T22:16:10.132Z,7.73
2022-08-10T22:18:58.851Z,7.40
2022-08-10T22:21:54.480Z,7.60
2022-08-10T22:24:56.508Z,7.30
2022-08-10T22:27:49.691Z,7.77
2022-08-10T22:30:36.290Z,7.20
2022-08-10T22:33:53.644Z,6.90
2022-08-10T22:36:58.046Z,7.60
2022-08-10T22:40:13.774Z,9.20
2022-08-10T22:43:11.036Z,7.60
2022-08-10T22:46:03.849Z,8.00
2022-08-10T22:48:51.026Z,9.10
2022-08-10T22:51:23.766Z,6.50
2022-08-10T22:54:30.913Z,7.60
2022-08-10T22:57:18.228Z,7.87
2022-08-10T22:59:45.080Z,7.03
2022-08-10T23:02:15.856Z,8.10
2022-08-10T23:04:51.355Z,7.53
2022-08-10T23:07:17.752Z,8.73
2022-08-10T23:10:06.992Z,8.10
2022-08-10T23:12:37.290Z,7.07
2022-08-10T23:15:25.076Z,7.00
2022-08-10T23:18:15.034Z,8.47
2022-08-10T23:20:42.313Z,7.33
2022-08-10T23:23:11.191Z,7.30
2022-08-10T23:25:56.508Z,7.40
2022-08-10T23:28:38.556Z,7.13
2022-08-10T23:31:13.507Z,7.37
2022-08-10T23:33:41.102Z,7.60
2022-08-10T23:36:34.193Z,7.57
2022-08-10T23:39:27.004Z,7.60
2022-08-10T23:41:52.941Z,8.33
2022-08-10T23:44:21.327Z,8.00
2022-08-10T23:46:48.786Z,7.90
2022-08-10T23:49:15.764Z,8.97
2022-08-10T23:51:55.423Z,7.43
2022-08-10T23:54:22.706Z,7.27
2022-08-10T23:56:52.460Z,7.73
2022-08-10T23:59:25.140Z,7.80
